Time,TemperatureF,DewpointF,PressureIn,WindDirection,WindDirectionDegrees,WindSpeedMPH,WindSpeedGustMPH,Humidity,HourlyPrecipIn,Conditions,Clouds,dailyrainin,SoftwareType,DateUTC
2013-09-05 00:24:00,-999.0,-99.9,30.08,ENE,58,4.0,8.0,-999,-99.99,,,-99.99,,2013-09-05 04:24:00,
2013-09-05 00:44:00,-999.0,-99.9,30.08,NE,53,4.0,7.0,-999,-99.99,,,-99.99,,2013-09-05 04:44:00,
2013-09-05 01:34:00,-999.0,-99.9,30.07,NE,55,5.0,6.0,-999,-99.99,,,-99.99,,2013-09-05 05:34:00,
2013-09-05 01:52:00,-999.0,-99.9,30.06,NE,56,5.0,7.0,-999,-99.99,,,-99.99,,2013-09-05 05:52:00,
2013-09-05 02:02:00,-999.0,-99.9,30.06,ENE,69,4.0,8.0,-999,-99.99,,,-99.99,,2013-09-05 06:02:00,
2013-09-05 02:13:00,-999.0,-99.9,30.05,ENE,73,5.0,7.0,-999,-99.99,,,-99.99,,2013-09-05 06:13:00,
2013-09-05 02:42:00,-999.0,-99.9,30.04,ENE,73,4.0,6.0,-999,-99.99,,,-99.99,,2013-09-05 06:42:00,
2013-09-05 02:52:00,-999.0,-99.9,30.04,East,79,3.0,7.0,-999,-99.99,,,-99.99,,2013-09-05 06:52:00,
2013-09-05 03:32:00,-999.0,-99.9,30.03,ENE,63,4.0,7.0,-999,-99.99,,,-99.99,,2013-09-05 07:32:00,
2013-09-05 03:42:00,-999.0,-99.9,30.03,ENE,78,4.0,6.0,-999,-99.99,,,-99.99,,2013-09-05 07:42:00,
2013-09-05 04:03:00,-999.0,-99.9,30.03,ENE,71,5.0,7.0,-999,-99.99,,,-99.99,,2013-09-05 08:03:00,
2013-09-05 04:22:00,-999.0,-99.9,30.03,ENE,77,4.0,5.0,-999,-99.99,,,-99.99,,2013-09-05 08:22:00,
2013-09-05 05:22:00,-999.0,-99.9,30.03,East,84,3.0,7.0,-999,-99.99,,,-99.99,,2013-09-05 09:22:00,
2013-09-05 05:33:00,-999.0,-99.9,30.03,ENE,78,5.0,8.0,-999,-99.99,,,-99.99,,2013-09-05 09:33:00,
2013-09-05 05:43:00,-999.0,-99.9,30.03,ENE,69,4.0,7.0,-999,-99.99,,,-99.99,,2013-09-05 09:43:00,
2013-09-05 06:03:00,-999.0,-99.9,30.03,ENE,57,3.0,4.0,-999,-99.99,,,-99.99,,2013-09-05 10:03:00,
2013-09-05 06:13:00,-999.0,-99.9,30.04,ENE,64,3.0,7.0,-999,-99.99,,,-99.99,,2013-09-05 10:13:00,
2013-09-05 06:43:00,-999.0,-99.9,30.05,ENE,57,2.0,5.0,-999,-99.99,,,-99.99,,2013-09-05 10:43:00,
2013-09-05 07:12:00,-999.0,-99.9,30.05,NE,54,4.0,6.0,-999,-99.99,,,-99.99,,2013-09-05 11:12:00,
2013-09-05 07:43:00,-999.0,-99.9,30.06,NE,56,4.0,6.0,-999,-99.99,,,-99.99,,2013-09-05 11:43:00,
2013-09-05 08:01:00,-999.0,-99.9,30.06,NE,53,4.0,7.0,-999,-99.99,,,-99.99,,2013-09-05 12:01:00,
2013-09-05 08:13:00,-999.0,-99.9,30.06,ENE,62,4.0,7.0,-999,-99.99,,,-99.99,,2013-09-05 12:13:00,
2013-09-05 08:22:00,-999.0,-99.9,30.06,ENE,64,4.0,8.0,-999,-99.99,,,-99.99,,2013-09-05 12:22:00,
2013-09-05 08:32:00,-999.0,-99.9,30.07,ENE,64,3.0,6.0,-999,-99.99,,,-99.99,,2013-09-05 12:32:00,
2013-09-05 08:42:00,-999.0,-99.9,30.07,NE,49,4.0,7.0,-999,-99.99,,,-99.99,,2013-09-05 12:42:00,
2013-09-05 08:52:00,-999.0,-99.9,30.07,ENE,59,5.0,7.0,-999,-99.99,,,-99.99,,2013-09-05 12:52:00,
2013-09-05 09:02:00,-999.0,-99.9,30.07,ENE,63,5.0,8.0,-999,-99.99,,,-99.99,,2013-09-05 13:02:00,
2013-09-05 09:12:00,-999.0,-99.9,30.07,ENE,59,6.0,9.0,-999,-99.99,,,-99.99,,2013-09-05 13:12:00,
2013-09-05 09:22:00,-999.0,-99.9,30.07,ENE,68,5.0,8.0,-999,-99.99,,,-99.99,,2013-09-05 13:22:00,
2013-09-05 10:02:00,-999.0,-99.9,30.08,NE,50,5.0,9.0,-999,-99.99,,,-99.99,,2013-09-05 14:02:00,
2013-09-05 10:22:00,-999.0,-99.9,30.09,NE,56,6.0,8.0,-999,-99.99,,,-99.99,,2013-09-05 14:22:00,
2013-09-05 10:32:00,-999.0,-99.9,30.09,ENE,63,6.0,9.0,-999,-99.99,,,-99.99,,2013-09-05 14:32:00,
2013-09-05 10:52:00,-999.0,-99.9,30.09,ENE,67,5.0,9.0,-999,-99.99,,,-99.99,,2013-09-05 14:52:00,
2013-09-05 11:02:00,-999.0,-99.9,30.10,East,80,5.0,10.0,-999,-99.99,,,-99.99,,2013-09-05 15:02:00,
2013-09-05 11:11:00,-999.0,-99.9,30.10,NE,46,4.0,9.0,-999,-99.99,,,-99.99,,2013-09-05 15:11:00,
2013-09-05 11:22:00,-999.0,-99.9,30.10,ENE,59,5.0,11.0,-999,-99.99,,,-99.99,,2013-09-05 15:22:00,
2013-09-05 12:33:00,-999.0,-99.9,30.09,ENE,61,5.0,11.0,-999,-99.99,,,-99.99,,2013-09-05 16:33:00,
2013-09-05 12:54:00,-999.0,-99.9,30.09,ESE,121,6.0,10.0,-999,-99.99,,,-99.99,,2013-09-05 16:54:00,
2013-09-05 13:03:00,-999.0,-99.9,30.08,East,82,6.0,11.0,-999,-99.99,,,-99.99,,2013-09-05 17:03:00,
2013-09-05 13:12:00,-999.0,-99.9,30.08,ENE,75,5.0,11.0,-999,-99.99,,,-99.99,,2013-09-05 17:12:00,
2013-09-05 13:23:00,88.0,-99.9,30.08,North,-999,-999.0,-999.0,-999,-99.99,,,-99.99,,2013-09-05 17:23:00,
2013-09-05 13:34:00,-999.0,-99.9,30.07,ESE,121,3.0,10.0,-999,-99.99,,,-99.99,,2013-09-05 17:34:00,
2013-09-05 13:43:00,-999.0,-99.9,30.07,SSE,153,7.0,10.0,-999,-99.99,,,-99.99,,2013-09-05 17:43:00,
2013-09-05 14:12:00,-999.0,-99.9,30.07,South,170,5.0,12.0,-999,-99.99,,,-99.99,,2013-09-05 18:12:00,
2013-09-05 14:22:00,-999.0,-99.9,30.07,SSW,207,3.0,6.0,-999,-99.99,,,-99.99,,2013-09-05 18:22:00,
2013-09-05 15:11:00,-999.0,-99.9,30.04,WSW,249,9.0,10.0,-999,-99.99,,,-99.99,,2013-09-05 19:11:00,
2013-09-05 15:22:00,-999.0,-99.9,30.04,WSW,252,7.0,9.0,-999,-99.99,,,-99.99,,2013-09-05 19:22:00,
2013-09-05 15:32:00,-999.0,-99.9,30.04,SW,226,4.0,8.0,-999,-99.99,,,-99.99,,2013-09-05 19:32:00,
2013-09-05 16:22:00,-999.0,-99.9,30.05,NE,48,11.0,15.0,-999,-99.99,,,-99.99,,2013-09-05 20:22:00,
2013-09-05 16:52:00,-999.0,-99.9,30.04,South,191,2.0,15.0,-999,-99.99,,,-99.99,,2013-09-05 20:52:00,
2013-09-05 17:12:00,-999.0,-99.9,30.02,West,264,6.0,8.0,-999,-99.99,,,-99.99,,2013-09-05 21:12:00,
2013-09-05 17:22:00,-999.0,-99.9,30.03,West,268,5.0,7.0,-999,-99.99,,,-99.99,,2013-09-05 21:22:00,
2013-09-05 17:54:00,-999.0,-99.9,30.02,North,359,2.0,3.0,-999,-99.99,,,-99.99,,2013-09-05 21:54:00,
2013-09-05 18:24:00,-999.0,-99.9,30.03,North,359,4.0,4.0,-999,-99.99,,,-99.99,,2013-09-05 22:24:00,
2013-09-05 18:33:00,-999.0,-99.9,30.03,North,0,4.0,4.0,-999,-99.99,,,-99.99,,2013-09-05 22:33:00,
2013-09-05 18:43:00,-999.0,-99.9,30.03,ESE,110,2.0,3.0,-999,-99.99,,,-99.99,,2013-09-05 22:43:00,
2013-09-05 19:02:00,-999.0,-99.9,30.02,North,5,2.0,3.0,-999,-99.99,,,-99.99,,2013-09-05 23:02:00,
2013-09-05 19:22:00,-999.0,-99.9,30.03,North,355,3.0,5.0,-999,-99.99,,,-99.99,,2013-09-05 23:22:00,
2013-09-05 19:53:00,-999.0,-99.9,30.03,NE,55,2.0,3.0,-999,-99.99,,,-99.99,,2013-09-05 23:53:00,
2013-09-05 20:02:00,-999.0,-99.9,30.03,East,81,2.0,3.0,-999,-99.99,,,-99.99,,2013-09-06 00:02:00,
2013-09-05 20:12:00,-999.0,-99.9,30.03,ENE,72,2.0,3.0,-999,-99.99,,,-99.99,,2013-09-06 00:12:00,
2013-09-05 20:42:00,-999.0,-99.9,30.04,NNE,16,2.0,3.0,-999,-99.99,,,-99.99,,2013-09-06 00:42:00,
2013-09-05 20:52:00,81.0,-99.9,30.04,North,-999,-999.0,-999.0,-999,-99.99,,,-99.99,,2013-09-06 00:52:00,
2013-09-05 21:02:00,-999.0,-99.9,30.04,NNE,21,4.0,5.0,-999,-99.99,,,-99.99,,2013-09-06 01:02:00,
2013-09-05 21:32:00,-999.0,-99.9,30.05,NNE,24,3.0,4.0,-999,-99.99,,,-99.99,,2013-09-06 01:32:00,
2013-09-05 22:02:00,-999.0,-99.9,30.07,NNE,17,3.0,4.0,-999,-99.99,,,-99.99,,2013-09-06 02:02:00,
2013-09-05 22:22:00,-999.0,-99.9,30.07,ENE,63,2.0,4.0,-999,-99.99,,,-99.99,,2013-09-06 02:22:00,
2013-09-05 22:33:00,-999.0,-99.9,30.07,East,80,2.0,5.0,-999,-99.99,,,-99.99,,2013-09-06 02:33:00,
2013-09-05 23:11:00,-999.0,-99.9,30.07,NE,50,2.0,3.0,-999,-99.99,,,-99.99,,2013-09-06 03:11:00,
2013-09-05 23:22:00,-999.0,-99.9,30.07,ENE,65,3.0,5.0,-999,-99.99,,,-99.99,,2013-09-06 03:22:00,